^^

Notice: Undefined index: primary_ip in /membri/k3csg/WU-History-inc.php on line 1528
N3UVR's Backyard Weather Station Historical Data
 
Daily Summary for March 02, 2024 Units:  English    Metric   Both
Daily Weekly Monthly Yearly
  Current: High: Low: Average:
Temperature: 41.7 °F 41.7 °F 37 °F 39 °F
Dew Point: 37.6 °F 37.6 °F 25.7 °F 33.6 °F
Humidity: 85% 87% 57.8% 81%
Wind Speed: 0.4mph 2.5mph 0mph 0.3mph
Wind Gust: 2mph 8mph - -
WindWNW - - WSW
Pressure: 30.28 in 30.45 in 30.28 in -
Precipitation: 0.21 in      
 
 
Tabular Data for March 02, 2024
Time Temperature Dew Point Pressure Wind Wind Speed Wind Gust Humidity Rainfall Rate (Hourly) solar
00:04 39.2 °F 25.7 °F 30.44 in Calm     58% 0.00 in 0 W/m2
00:09 39.4 °F 25.9 °F 30.44 in Calm     58% 0.00 in 0 W/m2
00:14 39.5 °F 26 °F 30.44 in Calm     58% 0.00 in 0 W/m2
00:19 39.6 °F 26.1 °F 30.44 in Calm     58% 0.00 in 0 W/m2
00:24 39.7 °F 26.1 °F 30.44 in Calm     57.8% 0.00 in 0 W/m2
00:29 39.7 °F 26.2 °F 30.44 in Calm     58% 0.00 in 0 W/m2
00:34 39.7 °F 26.2 °F 30.44 in Calm     58% 0.00 in 0 W/m2
00:39 39.8 °F 26.3 °F 30.44 in Calm     58% 0.00 in 0 W/m2
00:44 39.9 °F 26.3 °F 30.44 in Calm     57.8% 0.00 in 0 W/m2
00:49 39.9 °F 26.7 °F 30.45 in Calm     58.8% 0.00 in 0 W/m2
00:54 40.1 °F 27 °F 30.45 in Calm     59% 0.00 in 0 W/m2
00:59 40.2 °F 27.1 °F 30.45 in Calm     59% 0.00 in 0 W/m2
01:03 40.3 °F 27.4 °F 30.45 in Calm     59.8% 0.00 in 0 W/m2
01:09 40.3 °F 27.5 °F 30.45 in Calm     60% 0.00 in 0 W/m2
01:14 40.3 °F 27.7 °F 30.45 in South 1.8 mph 4 mph 60.6% 0.00 in 0 W/m2
01:19 40.3 °F 28.7 °F 30.45 in SSE 1.6 mph 5 mph 62.8% 0.00 in 0 W/m2
01:23 40.3 °F 30 °F 30.45 in SE 2.5 mph 7 mph 66.6% 0.00 in 0 W/m2
01:29 40 °F 30.5 °F 30.45 in South 0.9 mph 2.9 mph 68.6% 0.00 in 0 W/m2
01:34 39.7 °F 30.6 °F 30.45 in SSE 0.4 mph 4 mph 69.6% 0.00 in 0 W/m2
01:39 39.6 °F 30.7 °F 30.45 in Calm     70.2% 0.00 in 0 W/m2
01:44 39.5 °F 31.1 °F 30.45 in Calm     71.6% 0.00 in 0 W/m2
01:49 39 °F 31 °F 30.45 in Calm     72.7% 0.00 in 0 W/m2
01:54 38.8 °F 31.2 °F 30.44 in Calm     73.8% 0.00 in 0 W/m2
01:59 38.7 °F 31.3 °F 30.44 in Calm     74.4% 0.00 in 0 W/m2
02:04 38.5 °F 31.3 °F 30.44 in Calm     75.2% 0.00 in 0 W/m2
02:09 38.3 °F 31.6 °F 30.43 in Calm     76.7% 0.00 in 0 W/m2
02:14 38 °F 31.6 °F 30.43 in Calm     77.2% 0.00 in 0 W/m2
02:19 37.9 °F 31.8 °F 30.43 in Calm     78.6% 0.00 in 0 W/m2
02:24 37.8 °F 32 °F 30.43 in Calm     79.5% 0.00 in 0 W/m2
02:29 37.7 °F 32.4 °F 30.42 in Calm     80.8% 0.00 in 0 W/m2
02:34 37.5 °F 32.4 °F 30.42 in WNW 0.8 mph 2 mph 81.8% 0.00 in 0 W/m2
02:39 37.2 °F 32.4 °F 30.42 in NNW 1.3 mph 3 mph 82.6% 0.00 in 0 W/m2
02:44 37.2 °F 32.5 °F 30.42 in NNW 0.3 mph 3 mph 83% 0.00 in 0 W/m2
02:49 37.2 °F 32.7 °F 30.42 in NNW 0.3 mph 1 mph 83.7% 0.00 in 0 W/m2
02:54 37 °F 32.7 °F 30.41 in Calm   1 mph 84% 0.00 in 0 W/m2
02:59 37 °F 32.7 °F 30.41 in Calm     84.2% 0.00 in 0 W/m2
03:04 37 °F 32.9 °F 30.41 in Calm     85% 0.00 in 0 W/m2
03:09 37 °F 32.9 °F 30.41 in Calm     85% 0.00 in 0 W/m2
03:14 37 °F 32.9 °F 30.41 in Calm     85% 0.00 in 0 W/m2
03:19 37 °F 32.9 °F 30.41 in Calm     85% 0.00 in 0 W/m2
03:24 37 °F 32.9 °F 30.40 in Calm     85% 0.01 in 0 W/m2
03:28 37 °F 32.9 °F 30.40 in Calm     85% 0.01 in 0 W/m2
03:34 37 °F 32.9 °F 30.40 in WNW 1.1 mph 2 mph 85% 0.01 in 0 W/m2
03:39 37 °F 32.9 °F 30.40 in WNW 0.2 mph 2 mph 85% 0.01 in 0 W/m2
03:44 37 °F 32.9 °F 30.40 in WNW 0.6 mph 3 mph 85% 0.01 in 0 W/m2
03:48 37 °F 32.9 °F 30.40 in Calm   3 mph 85% 0.01 in 0 W/m2
03:54 37 °F 32.9 °F 30.40 in WNW 0.6 mph 2 mph 85% 0.01 in 0 W/m2
03:59 37 °F 32.9 °F 30.40 in WNW 0.3 mph 2 mph 84.8% 0.01 in 0 W/m2
04:04 37.2 °F 32.9 °F 30.40 in WNW 1.2 mph 2 mph 84% 0.01 in 0 W/m2
04:09 37.2 °F 32.9 °F 30.40 in WNW 1 mph 3 mph 84% 0.01 in 0 W/m2
04:14 37.2 °F 32.9 °F 30.39 in West 0.7 mph 2 mph 84% 0.01 in 0 W/m2
04:19 37.2 °F 32.9 °F 30.39 in WSW 1.3 mph 3 mph 84% 0.01 in 0 W/m2
04:24 37.4 °F 33.1 °F 30.39 in Calm     84% 0.00 in 0 W/m2
04:29 37.4 °F 33.1 °F 30.38 in NW 0.2 mph 1 mph 84% 0.00 in 0 W/m2
04:34 37.5 °F 33.4 °F 30.38 in Calm     85% 0.00 in 0 W/m2
04:39 37.6 °F 33.4 °F 30.38 in NW 0.2 mph 1 mph 85% 0.00 in 0 W/m2
04:44 37.6 °F 33.4 °F 30.38 in Calm   1 mph 85% 0.00 in 0 W/m2
04:49 37.6 °F 33.4 °F 30.38 in NW 1 mph 3 mph 85% 0.00 in 0 W/m2
04:54 37.6 °F 33.4 °F 30.38 in Calm   3 mph 85% 0.00 in 0 W/m2
04:59 37.6 °F 33.4 °F 30.37 in NW 0.4 mph 2 mph 85% 0.00 in 0 W/m2
05:04 37.6 °F 33.6 °F 30.37 in NW 0.5 mph 2 mph 85.5% 0.00 in 0 W/m2
05:09 37.6 °F 33.8 °F 30.37 in NW 1 mph 3 mph 86% 0.00 in 0 W/m2
05:14 37.7 °F 33.9 °F 30.37 in NW 0.5 mph 3 mph 86% 0.00 in 0 W/m2
05:19 37.8 °F 34 °F 30.37 in West 1.6 mph 5 mph 86% 0.00 in 0 W/m2
05:24 37.8 °F 34 °F 30.37 in SW 0.4 mph 1 mph 86% 0.00 in 0 W/m2
05:29 37.8 °F 34 °F 30.37 in SW 0.4 mph 2 mph 86% 0.00 in 0 W/m2
05:34 37.9 °F 34.2 °F 30.37 in Calm   2 mph 86% 0.00 in 0 W/m2
05:39 37.9 °F 34.2 °F 30.37 in Calm     86% 0.00 in 0 W/m2
05:44 37.9 °F 34.2 °F 30.37 in Calm     86% 0.00 in 0 W/m2
05:49 37.9 °F 34.2 °F 30.37 in Calm     86% 0.00 in 0 W/m2
05:54 38 °F 34.2 °F 30.37 in Calm     86% 0.00 in 0 W/m2
05:59 38.1 °F 34.3 °F 30.37 in Calm     86% 0.00 in 0 W/m2
06:04 38.1 °F 34.3 °F 30.37 in Calm     86% 0.00 in 0 W/m2
06:09 38.1 °F 34.3 °F 30.36 in Calm     86% 0.00 in 0 W/m2
06:14 38.1 °F 34.3 °F 30.36 in Calm     86% 0.00 in 0 W/m2
06:19 38.1 °F 34.3 °F 30.36 in Calm     86% 0.00 in 0 W/m2
06:24 38.2 °F 34.4 °F 30.36 in Calm     86% 0.00 in 0 W/m2
06:29 38.3 °F 34.5 °F 30.36 in Calm     86% 0.00 in 0 W/m2
06:33 38.3 °F 34.5 °F 30.36 in Calm     86% 0.00 in 0 W/m2
06:39 38.5 °F 34.7 °F 30.35 in Calm     86% 0.00 in 0 W/m2
06:44 38.5 °F 34.7 °F 30.35 in Calm     86% 0.00 in 0 W/m2
06:49 38.5 °F 34.7 °F 30.35 in Calm     86% 0.00 in 0 W/m2
06:53 38.6 °F 34.8 °F 30.34 in Calm     86% 0.01 in 0 W/m2
06:59 38.7 °F 35 °F 30.34 in Calm     86.3% 0.01 in 5 W/m2
07:04 38.7 °F 35.1 °F 30.35 in Calm     87% 0.01 in 7 W/m2
07:09 38.7 °F 35.1 °F 30.34 in Calm     87% 0.01 in 7 W/m2
07:14 38.8 °F 35.2 °F 30.34 in Calm     87% 0.02 in 9 W/m2
07:19 38.8 °F 35.2 °F 30.34 in ESE 0.7 mph 3 mph 87% 0.02 in 11 W/m2
07:24 38.9 °F 35.2 °F 30.34 in ESE 0.4 mph 1 mph 86.6% 0.02 in 11 W/m2
07:29 39.1 °F 35.3 °F 30.35 in East 1.2 mph 6 mph 86% 0.02 in 12 W/m2
07:34 39.4 °F 35.6 °F 30.34 in ESE 1.4 mph 7 mph 86% 0.03 in 14 W/m2
07:39 39.6 °F 35.8 °F 30.34 in ESE 1.2 mph 7 mph 86% 0.03 in 18 W/m2
07:44 39.7 °F 35.9 °F 30.34 in ESE 0.8 mph 4 mph 86% 0.03 in 19 W/m2
07:49 39.7 °F 36 °F 30.34 in Calm   4 mph 86% 0.03 in 18 W/m2
07:54 39.7 °F 36 °F 30.34 in Calm     86% 0.02 in 23 W/m2
07:59 39.7 °F 36 °F 30.34 in West 1.2 mph 5 mph 86% 0.03 in 28 W/m2
08:04 39.7 °F 36 °F 30.34 in North 0.2 mph 5 mph 86% 0.03 in 25 W/m2
08:09 39.7 °F 36 °F 30.34 in Calm   1 mph 86% 0.03 in 26 W/m2
08:14 39.7 °F 36 °F 30.35 in Calm   0.9 mph 86% 0.03 in 30 W/m2
08:19 39.7 °F 36 °F 30.34 in Calm     86% 0.03 in 39 W/m2
08:24 39.8 °F 36 °F 30.34 in Calm     86% 0.03 in 40 W/m2
08:29 39.9 °F 36.1 °F 30.34 in North 0.6 mph 2 mph 86% 0.03 in 39 W/m2
08:34 39.8 °F 36 °F 30.34 in Calm   2 mph 86% 0.03 in 49 W/m2
08:39 39.9 °F 36.1 °F 30.34 in North 0.2 mph 1 mph 86% 0.03 in 65 W/m2
08:44 39.9 °F 36.1 °F 30.34 in North 0.2 mph 1 mph 86% 0.04 in 63 W/m2
08:49 39.9 °F 36.1 °F 30.34 in North 0.2 mph 2 mph 86% 0.04 in 58 W/m2
08:54 40.1 °F 36.3 °F 30.34 in Calm   2 mph 86% 0.04 in 47 W/m2
08:59 40.3 °F 36.5 °F 30.34 in Calm     86% 0.04 in 47 W/m2
09:04 40.3 °F 36.5 °F 30.33 in North 0.2 mph 1 mph 86% 0.03 in 46 W/m2
09:09 40.3 °F 36.5 °F 30.33 in Calm     86% 0.03 in 39 W/m2
09:14 40.3 °F 36.5 °F 30.33 in Calm     86% 0.03 in 35 W/m2
09:18 40.3 °F 36.5 °F 30.33 in Calm     86% 0.03 in 32 W/m2
09:24 40.3 °F 36.5 °F 30.33 in Calm     86% 0.03 in 26 W/m2
09:29 40.3 °F 36.5 °F 30.33 in Calm     86% 0.04 in 25 W/m2
09:34 40.3 °F 36.5 °F 30.33 in Calm     86% 0.04 in 28 W/m2
09:39 40.3 °F 36.5 °F 30.32 in SE 0.5 mph 3 mph 86% 0.03 in 30 W/m2
09:44 40.3 °F 36.5 °F 30.32 in ESE 0.5 mph 1 mph 86% 0.04 in 32 W/m2
09:49 40.4 °F 36.6 °F 30.32 in SE 0.5 mph 3 mph 86% 0.03 in 28 W/m2
09:54 40.5 °F 36.7 °F 30.32 in Calm     86% 0.04 in 25 W/m2
09:58 40.5 °F 36.5 °F 30.32 in SE 0.3 mph 3 mph 85.5% 0.04 in 28 W/m2
10:04 40.6 °F 36.4 °F 30.31 in SE 2.2 mph 8 mph 85% 0.05 in 30 W/m2
10:09 40.7 °F 36.6 °F 30.31 in WNW 1.6 mph 8 mph 85% 0.05 in 30 W/m2
10:14 40.9 °F 36.8 °F 30.31 in WNW 1.6 mph 4 mph 85% 0.06 in 30 W/m2
10:19 41.2 °F 37 °F 30.31 in SSW 0.6 mph 4 mph 85% 0.05 in 30 W/m2
10:24 41.4 °F 37.2 °F 30.31 in WNW 0.7 mph 3 mph 85% 0.06 in 28 W/m2
10:29 41.4 °F 37.2 °F 30.30 in WNW 1.5 mph 3 mph 85% 0.06 in 28 W/m2
10:34 41.4 °F 37.2 °F 30.30 in WNW 0.4 mph 1 mph 85% 0.06 in 26 W/m2
10:39 41.4 °F 37.2 °F 30.30 in WNW 0.7 mph 3 mph 85% 0.07 in 23 W/m2
10:44 41.4 °F 37.2 °F 30.30 in WNW 0.2 mph 1 mph 85% 0.07 in 21 W/m2
10:49 41.4 °F 37.2 °F 30.29 in Calm   0.9 mph 85% 0.07 in 21 W/m2
10:54 41.4 °F 37.2 °F 30.29 in WNW 0.2 mph 1 mph 85% 0.07 in 21 W/m2
10:59 41.5 °F 37.4 °F 30.28 in Calm   1 mph 85% 0.07 in 23 W/m2
11:04 41.5 °F 37.4 °F 30.28 in Calm     85% 0.08 in 21 W/m2
11:09 41.7 °F 37.6 °F 30.28 in Calm     85% 0.08 in 23 W/m2
11:14 41.7 °F 37.6 °F 30.28 in WNW 0.4 mph 2 mph 85% 0.07 in 30 W/m2
Archbald, PA, USA
Compliments of Weather Underground - 2 mb